Time;durP1;ratioP1;P1;durP2;ratioP2;P2;SDS_P1;SDS_P2;PMS_P1;PMS_P2;Temp;Humidity;BMP_temperature;BMP_pressure;BME280_temperature;BME280_humidity;BME280_pressure;Samples;Min_cycle;Max_cycle;Signal;HPM_P1;HPM_P2
2022/12/13 00:01:31;;;;;;;5.82;5.43;;;-2.80;99.90;;;;;;4971567;28;20228;-76
2022/12/13 00:04:01;;;;;;;5.43;4.97;;;-2.70;99.90;;;;;;5007759;28;20574;-76
2022/12/13 00:06:29;;;;;;;5.30;4.90;;;-2.70;99.90;;;;;;5015366;28;20238;-75
2022/12/13 00:08:57;;;;;;;4.70;4.40;;;-2.70;99.90;;;;;;4991712;28;20200;-75
2022/12/13 00:11:25;;;;;;;5.95;5.55;;;-2.70;99.90;;;;;;4990583;28;20324;-75
2022/12/13 00:13:54;;;;;;;6.22;5.70;;;-2.70;99.90;;;;;;5001236;28;20247;-75
2022/12/13 00:16:23;;;;;;;5.45;5.05;;;-2.80;99.90;;;;;;4995335;28;20220;-75
2022/12/13 00:18:54;;;;;;;5.15;4.75;;;-2.70;99.90;;;;;;5019431;28;20196;-75
2022/12/13 00:21:23;;;;;;;5.78;5.30;;;-2.80;99.90;;;;;;4992544;28;20387;-75
2022/12/13 00:23:51;;;;;;;5.80;5.40;;;-2.70;99.90;;;;;;5008710;28;20230;-75
2022/12/13 00:26:21;;;;;;;5.40;5.00;;;-2.70;99.90;;;;;;5015971;28;20219;-75
2022/12/13 00:28:50;;;;;;;5.28;4.85;;;-2.70;99.90;;;;;;5017891;28;20411;-75
2022/12/13 00:31:19;;;;;;;5.32;5.03;;;-2.70;99.90;;;;;;5006167;28;20225;-75
2022/12/13 00:33:47;;;;;;;6.53;5.95;;;-2.70;99.90;;;;;;5010244;28;20752;-75
2022/12/13 00:36:17;;;;;;;5.78;5.38;;;-2.70;99.90;;;;;;5028160;28;20227;-75
2022/12/13 00:38:45;;;;;;;5.75;5.35;;;-2.80;99.90;;;;;;5022672;28;20188;-75
2022/12/13 00:41:14;;;;;;;5.95;5.50;;;-2.80;99.90;;;;;;5011179;28;20223;-75
2022/12/13 00:43:42;;;;;;;5.60;5.20;;;-2.80;99.90;;;;;;5006018;28;20617;-75
2022/12/13 00:46:13;;;;;;;5.82;5.43;;;-2.80;99.90;;;;;;4990875;28;20228;-75
2022/12/13 00:48:41;;;;;;;5.68;5.28;;;-2.70;99.90;;;;;;5004678;28;20629;-75
2022/12/13 00:51:09;;;;;;;5.15;4.85;;;-2.70;99.90;;;;;;5004534;28;20250;-75
2022/12/13 00:53:38;;;;;;;5.35;5.05;;;-2.70;99.90;;;;;;5011956;28;20274;-75
2022/12/13 00:56:11;;;;;;;5.50;5.15;;;-2.70;99.90;;;;;;4994350;28;20220;-75
2022/12/13 00:58:38;;;;;;;5.65;5.25;;;-2.70;99.90;;;;;;5012612;28;20241;-75
2022/12/13 01:01:06;;;;;;;5.22;4.93;;;-2.70;99.90;;;;;;5015029;28;20216;-75
2022/12/13 01:03:34;;;;;;;5.47;5.07;;;-2.70;99.90;;;;;;4996850;28;20217;-75
2022/12/13 01:06:02;;;;;;;5.15;4.85;;;-2.70;99.90;;;;;;5013653;28;20273;-75
2022/12/13 01:08:30;;;;;;;6.03;5.50;;;-2.60;99.90;;;;;;5018469;28;20572;-75
2022/12/13 01:10:59;;;;;;;6.68;6.13;;;-2.60;99.90;;;;;;5021694;28;20230;-75
2022/12/13 01:13:26;;;;;;;5.82;5.43;;;-2.60;99.90;;;;;;5012890;28;20223;-75
2022/12/13 01:15:53;;;;;;;5.47;5.00;;;-2.60;99.90;;;;;;5014638;28;20224;-75
2022/12/13 01:18:21;;;;;;;5.47;5.15;;;-2.70;99.90;;;;;;5013039;28;20198;-75
2022/12/13 01:20:59;;;;;;;5.18;4.88;;;-2.70;99.90;;;;;;5009737;28;20310;-76
2022/12/13 01:23:27;;;;;;;5.40;5.10;;;-2.70;99.90;;;;;;5013130;28;20248;-76
2022/12/13 01:25:54;;;;;;;5.40;5.03;;;-2.80;99.90;;;;;;5013206;28;20223;-76
2022/12/13 01:28:24;;;;;;;5.32;5.03;;;-2.80;99.90;;;;;;5009562;28;20200;-76
2022/12/13 01:30:56;;;;;;;5.45;5.13;;;-2.80;99.90;;;;;;5004074;28;20228;-76
2022/12/13 01:33:25;;;;;;;5.78;5.43;;;-2.80;99.90;;;;;;4990890;28;20219;-76
2022/12/13 01:35:53;;;;;;;4.93;4.57;;;-2.80;99.90;;;;;;5007258;28;20225;-76
2022/12/13 01:38:22;;;;;;;5.68;5.28;;;-2.90;99.90;;;;;;5009436;28;20209;-76
2022/12/13 01:40:56;;;;;;;5.05;4.75;;;-2.80;99.90;;;;;;4994802;28;20226;-76
2022/12/13 01:43:27;;;;;;;5.47;5.18;;;-2.80;99.90;;;;;;5011438;28;20221;-76
2022/12/13 01:45:54;;;;;;;5.65;5.25;;;-2.80;99.90;;;;;;5030355;28;20220;-76
2022/12/13 01:48:27;;;;;;;5.35;4.95;;;-2.80;99.90;;;;;;5008996;28;20191;-76
2022/12/13 01:51:00;;;;;;;5.03;4.72;;;-2.80;99.90;;;;;;5007597;28;20228;-76
2022/12/13 01:53:31;;;;;;;5.07;4.78;;;-2.80;99.90;;;;;;5003390;28;20228;-76
2022/12/13 01:56:02;;;;;;;5.05;4.75;;;-2.70;99.90;;;;;;5012383;28;20223;-76
2022/12/13 01:58:32;;;;;;;4.85;4.55;;;-2.70;99.90;;;;;;5015527;28;20225;-76
2022/12/13 02:01:01;;;;;;;5.70;5.35;;;-2.70;99.90;;;;;;5001795;28;20231;-76
2022/12/13 02:03:28;;;;;;;5.90;5.50;;;-2.70;99.90;;;;;;5002446;28;20224;-75
2022/12/13 02:06:01;;;;;;;5.18;4.88;;;-2.70;99.90;;;;;;5007092;28;20228;-76
2022/12/13 02:08:30;;;;;;;5.40;5.07;;;-2.70;99.90;;;;;;5017096;28;20203;-76
2022/12/13 02:11:00;;;;;;;5.57;5.18;;;-2.70;99.90;;;;;;5018165;28;20223;-76
2022/12/13 02:13:27;;;;;;;6.30;5.80;;;-2.70;99.90;;;;;;4997081;28;20706;-76
2022/12/13 02:16:03;;;;;;;6.40;5.90;;;-2.70;99.90;;;;;;5004639;28;20219;-76
2022/12/13 02:18:45;;;;;;;4.90;4.50;;;-2.80;99.90;;;;;;5008299;28;20195;-76
2022/12/13 02:21:31;;;;;;;4.95;4.65;;;-2.80;99.90;;;;;;5022326;28;20230;-76
2022/12/13 02:24:32;;;;;;;5.85;5.45;;;-2.80;99.90;;;;;;5011955;28;20220;-76
2022/12/13 02:27:07;;;;;;;5.38;4.97;;;-2.70;99.90;;;;;;5000717;28;20244;-75
2022/12/13 02:30:15;;;;;;;5.53;5.13;;;-2.70;99.90;;;;;;5009674;28;20673;-76
2022/12/13 02:33:00;;;;;;;5.30;5.00;;;-2.60;99.90;;;;;;4996916;28;20226;-75
2022/12/13 02:35:36;;;;;;;5.75;5.32;;;-2.60;99.90;;;;;;5007418;28;20227;-76
2022/12/13 02:38:10;;;;;;;6.30;5.90;;;-2.50;99.90;;;;;;5002368;28;20192;-76
2022/12/13 02:40:43;;;;;;;5.03;4.72;;;-2.60;99.90;;;;;;5005759;28;20254;-76
2022/12/13 02:43:18;;;;;;;5.30;5.00;;;-2.70;99.90;;;;;;5019177;28;20295;-76
2022/12/13 02:45:48;;;;;;;5.95;5.43;;;-2.70;99.90;;;;;;5003200;28;20300;-75
2022/12/13 02:48:20;;;;;;;5.90;5.35;;;-2.70;99.90;;;;;;5046839;28;20203;-76
2022/12/13 02:50:48;;;;;;;5.65;5.22;;;-2.70;99.90;;;;;;5043531;28;20223;-76
2022/12/13 02:53:17;;;;;;;4.95;4.60;;;-2.80;99.90;;;;;;5054634;28;20214;-75
2022/12/13 02:55:45;;;;;;;5.78;5.38;;;-2.70;99.90;;;;;;5062713;28;20224;-76
2022/12/13 02:58:13;;;;;;;5.35;4.95;;;-2.80;99.90;;;;;;5048832;28;20669;-76
2022/12/13 03:00:54;;;;;;;5.40;5.10;;;-2.90;99.90;;;;;;5031968;28;20250;-76
2022/12/13 03:03:37;;;;;;;5.25;4.85;;;-2.90;99.90;;;;;;5034718;28;20218;-76
2022/12/13 03:06:30;;;;;;;5.53;5.13;;;-2.90;99.90;;;;;;5047882;28;20285;-76
2022/12/13 03:09:08;;;;;;;5.57;5.07;;;-2.90;99.90;;;;;;5048009;28;20289;-76
2022/12/13 03:14:46;;;;;;;5.30;4.95;;;-2.80;99.90;;;;;;5027627;28;20205;-76
2022/12/13 03:17:18;;;;;;;5.45;5.15;;;-2.80;99.90;;;;;;5049725;28;20227;-76
2022/12/13 03:19:47;;;;;;;5.07;4.78;;;-2.80;99.90;;;;;;5045931;28;20577;-76
2022/12/13 03:22:16;;;;;;;5.82;5.43;;;-2.80;99.90;;;;;;5045061;28;20601;-76
2022/12/13 03:24:43;;;;;;;4.78;4.47;;;-2.70;99.90;;;;;;5027054;28;20199;-76
2022/12/13 03:27:12;;;;;;;5.80;5.40;;;-2.70;99.90;;;;;;5051403;28;21028;-76
2022/12/13 03:29:40;;;;;;;6.07;5.60;;;-2.80;99.90;;;;;;5040409;28;20241;-76
2022/12/13 03:32:07;;;;;;;4.82;4.53;;;-2.80;99.90;;;;;;5041366;28;20250;-76
2022/12/13 03:34:34;;;;;;;5.50;5.10;;;-2.80;99.90;;;;;;5046816;28;20195;-76
2022/12/13 03:37:05;;;;;;;5.20;4.90;;;-2.80;99.90;;;;;;5050130;28;20211;-76
2022/12/13 03:39:35;;;;;;;5.32;4.93;;;-2.80;99.90;;;;;;5036962;28;20202;-76
2022/12/13 03:42:03;;;;;;;5.28;4.97;;;-2.70;99.90;;;;;;5046792;28;20223;-76
2022/12/13 03:44:30;;;;;;;5.05;4.70;;;-2.70;99.90;;;;;;5040532;28;20195;-75
2022/12/13 03:46:58;;;;;;;5.88;5.47;;;-2.70;99.90;;;;;;5040547;28;20226;-76
2022/12/13 03:49:25;;;;;;;5.43;5.13;;;-2.70;99.90;;;;;;5048311;28;20656;-76
2022/12/13 03:51:52;;;;;;;6.22;5.72;;;-2.70;99.90;;;;;;5041684;28;20655;-76
2022/12/13 03:54:21;;;;;;;6.63;5.95;;;-2.80;99.90;;;;;;5051167;28;20588;-75
2022/12/13 03:56:49;;;;;;;5.18;4.68;;;-2.80;99.90;;;;;;5047336;28;20220;-77
2022/12/13 03:59:16;;;;;;;5.32;5.03;;;-2.90;99.90;;;;;;5047996;28;20203;-76
2022/12/13 04:01:44;;;;;;;5.75;5.25;;;-2.90;99.90;;;;;;5044370;28;20328;-75
2022/12/13 04:04:11;;;;;;;5.40;5.07;;;-2.90;99.90;;;;;;5047842;28;20204;-76
2022/12/13 04:06:39;;;;;;;6.10;5.60;;;-2.90;99.90;;;;;;5036571;28;20216;-76
2022/12/13 04:09:06;;;;;;;6.68;6.18;;;-2.80;99.90;;;;;;5042578;28;20195;-77
2022/12/13 04:14:20;;;;;;;5.05;4.75;;;-2.80;99.90;;;;;;5047653;28;20202;-76
2022/12/13 04:16:48;;;;;;;5.05;4.75;;;-2.80;99.90;;;;;;5050667;28;20218;-76
2022/12/13 04:19:16;;;;;;;5.68;5.28;;;-2.80;99.90;;;;;;5050922;28;20202;-77
2022/12/13 04:21:43;;;;;;;5.97;5.57;;;-2.80;99.90;;;;;;5046692;28;20207;-76
2022/12/13 04:24:11;;;;;;;6.10;5.60;;;-2.80;99.90;;;;;;5050558;28;20206;-77
2022/12/13 04:26:40;;;;;;;5.32;5.03;;;-2.90;99.90;;;;;;5052284;28;20214;-76
2022/12/13 04:29:07;;;;;;;5.93;5.45;;;-2.90;99.90;;;;;;5033784;28;20207;-77
2022/12/13 04:31:34;;;;;;;5.60;5.20;;;-2.90;99.90;;;;;;5048815;28;20215;-76
2022/12/13 04:34:03;;;;;;;5.38;5.07;;;-2.90;99.90;;;;;;5056256;28;20225;-76
2022/12/13 04:36:30;;;;;;;5.68;5.38;;;-2.90;99.90;;;;;;5036897;28;20218;-76
2022/12/13 04:38:58;;;;;;;5.80;5.50;;;-2.80;99.90;;;;;;5055593;28;20196;-76
2022/12/13 04:41:26;;;;;;;5.72;5.30;;;-2.80;99.90;;;;;;5056494;28;20702;-77
2022/12/13 04:43:55;;;;;;;6.30;5.90;;;-2.70;99.90;;;;;;5051230;28;20686;-76
2022/12/13 04:46:22;;;;;;;6.10;5.70;;;-2.70;99.90;;;;;;5056292;28;20218;-76
2022/12/13 04:48:50;;;;;;;5.40;5.10;;;-2.70;99.90;;;;;;5051504;28;20195;-76
2022/12/13 04:51:17;;;;;;;5.40;5.10;;;-2.80;99.90;;;;;;5053935;28;20973;-76
2022/12/13 04:53:45;;;;;;;6.43;5.93;;;-2.70;99.90;;;;;;5051988;28;20271;-76
2022/12/13 04:56:12;;;;;;;5.50;5.10;;;-2.70;99.90;;;;;;5040280;28;20303;-76
2022/12/13 04:58:40;;;;;;;5.80;5.38;;;-2.80;99.90;;;;;;5036342;28;20202;-76
2022/12/13 05:01:10;;;;;;;5.95;5.43;;;-2.80;99.90;;;;;;5047831;28;20668;-75
2022/12/13 05:03:38;;;;;;;6.07;5.47;;;-2.90;99.90;;;;;;5059174;28;20218;-76
2022/12/13 05:06:07;;;;;;;5.55;5.25;;;-2.90;99.90;;;;;;5054499;28;20223;-76
2022/12/13 05:08:36;;;;;;;5.93;5.53;;;-2.90;99.90;;;;;;5027493;28;20198;-76
2022/12/13 05:11:04;;;;;;;6.35;5.95;;;-2.90;99.90;;;;;;5054507;28;20219;-76
2022/12/13 05:13:31;;;;;;;5.57;5.18;;;-2.90;99.90;;;;;;5074824;28;20244;-75
2022/12/13 05:16:01;;;;;;;5.63;5.25;;;-2.90;99.90;;;;;;5039516;28;20214;-76
2022/12/13 05:18:30;;;;;;;5.70;5.30;;;-2.80;99.90;;;;;;5046493;28;20195;-75
2022/12/13 05:21:02;;;;;;;5.45;5.07;;;-2.80;99.90;;;;;;5025241;28;20230;-75
2022/12/13 05:23:29;;;;;;;5.13;4.72;;;-2.70;99.90;;;;;;5055800;28;20260;-75
2022/12/13 05:25:57;;;;;;;5.60;5.20;;;-2.70;99.90;;;;;;5033629;28;20222;-76
2022/12/13 05:28:27;;;;;;;6.10;5.70;;;-2.80;99.90;;;;;;5035753;28;20343;-75
2022/12/13 05:30:55;;;;;;;6.22;5.72;;;-2.80;99.90;;;;;;5028751;28;20246;-75
2022/12/13 05:33:23;;;;;;;5.88;5.28;;;-2.80;99.90;;;;;;5048679;28;20246;-75
2022/12/13 05:35:52;;;;;;;5.80;5.40;;;-2.80;99.90;;;;;;5051091;28;20665;-76
2022/12/13 05:38:20;;;;;;;6.35;5.85;;;-2.90;99.90;;;;;;5053041;28;20194;-75
2022/12/13 05:40:47;;;;;;;6.88;6.28;;;-3.00;99.90;;;;;;5044377;28;20221;-76
2022/12/13 05:43:15;;;;;;;6.70;6.15;;;-3.00;99.90;;;;;;5041069;28;20218;-76
2022/12/13 05:45:42;;;;;;;5.80;5.32;;;-2.90;99.90;;;;;;5043017;28;20223;-76
2022/12/13 05:48:10;;;;;;;6.18;5.78;;;-2.90;99.90;;;;;;5051002;28;20204;-75
2022/12/13 05:50:38;;;;;;;5.60;5.10;;;-2.90;99.90;;;;;;5051103;28;20611;-76
2022/12/13 05:53:07;;;;;;;5.85;5.38;;;-2.80;99.90;;;;;;5043960;28;20293;-76
2022/12/13 05:55:35;;;;;;;6.68;6.07;;;-2.80;99.90;;;;;;5035580;28;20671;-76
2022/12/13 05:58:02;;;;;;;5.88;5.47;;;-2.80;99.90;;;;;;5025764;28;20796;-76
2022/12/13 06:00:30;;;;;;;6.20;5.60;;;-2.80;99.90;;;;;;5049882;28;20203;-76
2022/12/13 06:02:59;;;;;;;5.35;4.95;;;-2.80;99.90;;;;;;5049543;28;20218;-75
2022/12/13 06:05:26;;;;;;;5.57;5.18;;;-2.80;99.90;;;;;;5047213;28;20199;-76
2022/12/13 06:07:55;;;;;;;5.25;4.93;;;-2.80;99.90;;;;;;5047998;28;20194;-76
2022/12/13 06:10:25;;;;;;;6.10;5.70;;;-2.90;99.90;;;;;;5043252;28;20249;-76
2022/12/13 06:12:52;;;;;;;6.10;5.75;;;-2.80;99.90;;;;;;5053844;28;20711;-75
2022/12/13 06:15:19;;;;;;;5.25;4.95;;;-2.80;99.90;;;;;;5044222;28;20205;-74
2022/12/13 06:17:47;;;;;;;6.18;5.70;;;-2.80;99.90;;;;;;5045333;28;20238;-75
2022/12/13 06:20:14;;;;;;;5.57;5.28;;;-2.80;99.90;;;;;;5067703;23;20616;-76
2022/12/13 06:22:41;;;;;;;5.50;5.20;;;-2.80;99.90;;;;;;5097221;27;20217;-75
2022/12/13 06:25:09;;;;;;;4.90;4.60;;;-2.70;99.90;;;;;;5092801;28;20199;-75
2022/12/13 06:27:37;;;;;;;5.43;5.05;;;-2.70;99.90;;;;;;5092782;28;20221;-76
2022/12/13 06:30:06;;;;;;;5.50;5.15;;;-2.70;99.90;;;;;;5086643;28;20197;-75
2022/12/13 06:32:33;;;;;;;6.10;5.57;;;-2.70;99.90;;;;;;5083014;28;20710;-76
2022/12/13 06:35:00;;;;;;;5.57;5.15;;;-2.80;99.90;;;;;;5083309;28;20193;-77
2022/12/13 06:37:27;;;;;;;6.07;5.63;;;-2.80;99.90;;;;;;5087516;28;20566;-77
2022/12/13 06:39:54;;;;;;;5.75;5.45;;;-2.80;99.90;;;;;;5090438;28;20193;-76
2022/12/13 06:42:21;;;;;;;6.20;5.63;;;-2.80;99.90;;;;;;5075735;28;20222;-76
2022/12/13 06:44:51;;;;;;;5.45;5.13;;;-2.80;99.90;;;;;;5089605;28;20193;-77
2022/12/13 06:47:18;;;;;;;6.00;5.60;;;-2.80;99.90;;;;;;5086095;28;20220;-76
2022/12/13 06:49:45;;;;;;;6.00;5.60;;;-2.80;99.90;;;;;;5088335;28;20930;-77
2022/12/13 06:52:13;;;;;;;5.63;5.25;;;-2.80;99.90;;;;;;5086542;28;20224;-76
2022/12/13 06:54:41;;;;;;;5.68;5.32;;;-2.80;99.90;;;;;;5087781;28;20190;-76
2022/12/13 06:57:08;;;;;;;6.05;5.65;;;-2.70;99.90;;;;;;5083524;28;20320;-76
2022/12/13 06:59:35;;;;;;;6.53;6.03;;;-2.70;99.90;;;;;;5076650;28;20201;-77
2022/12/13 07:02:04;;;;;;;6.32;5.93;;;-2.70;99.90;;;;;;5076697;28;20841;-77
2022/12/13 07:04:31;;;;;;;5.97;5.55;;;-2.70;99.90;;;;;;5084112;28;20198;-76
2022/12/13 07:06:58;;;;;;;5.72;5.32;;;-2.70;99.90;;;;;;5086749;27;20996;-76
2022/12/13 07:09:25;;;;;;;5.40;5.10;;;-2.70;99.90;;;;;;5090679;28;20200;-76
2022/12/13 07:11:52;;;;;;;5.55;5.25;;;-2.70;99.90;;;;;;5096839;28;20228;-76
2022/12/13 07:14:19;;;;;;;5.28;4.97;;;-2.70;99.90;;;;;;5075679;28;20197;-76
2022/12/13 07:16:47;;;;;;;4.47;4.18;;;-2.60;99.90;;;;;;5083415;28;20262;-77
2022/12/13 07:19:15;;;;;;;5.88;5.47;;;-2.60;99.90;;;;;;5092152;28;20223;-76
2022/12/13 07:21:42;;;;;;;6.10;5.70;;;-2.60;99.90;;;;;;5087401;28;20908;-77
2022/12/13 07:24:09;;;;;;;5.55;5.15;;;-2.60;99.90;;;;;;5082728;28;20209;-75
2022/12/13 07:26:37;;;;;;;5.45;5.15;;;-2.60;99.90;;;;;;5082984;28;20313;-76
2022/12/13 07:29:04;;;;;;;5.20;4.90;;;-2.60;99.90;;;;;;5084120;28;20292;-77
2022/12/13 07:31:34;;;;;;;5.85;5.40;;;-2.60;99.90;;;;;;5077710;28;20355;-77
2022/12/13 07:34:01;;;;;;;5.55;5.15;;;-2.60;99.90;;;;;;5085613;28;20213;-76
2022/12/13 07:36:29;;;;;;;5.72;5.32;;;-2.60;99.90;;;;;;5080259;28;20224;-76
2022/12/13 07:38:57;;;;;;;6.20;5.63;;;-2.50;99.90;;;;;;5086075;28;20571;-79
2022/12/13 07:41:26;;;;;;;5.53;5.22;;;-2.50;99.90;;;;;;5079937;28;20228;-77
2022/12/13 07:43:53;;;;;;;6.15;5.68;;;-2.50;99.90;;;;;;5086403;28;20200;-77
2022/12/13 07:46:21;;;;;;;6.57;6.07;;;-2.40;99.90;;;;;;5087327;28;20220;-76
2022/12/13 07:48:48;;;;;;;7.30;6.60;;;-2.40;99.90;;;;;;5084433;28;20205;-76
2022/12/13 07:51:15;;;;;;;7.70;7.05;;;-2.50;99.90;;;;;;5083242;28;20707;-77
2022/12/13 07:53:43;;;;;;;7.72;7.03;;;-2.50;99.90;;;;;;5081726;28;20585;-76
2022/12/13 07:56:12;;;;;;;6.78;6.28;;;-2.50;99.90;;;;;;5082262;28;20222;-76
2022/12/13 07:58:40;;;;;;;7.30;6.60;;;-2.50;99.90;;;;;;5084889;28;20305;-77
2022/12/13 08:01:10;;;;;;;7.30;6.72;;;-2.50;99.90;;;;;;5076610;28;20224;-76
2022/12/13 08:03:38;;;;;;;6.63;6.10;;;-2.50;99.90;;;;;;5079739;28;20195;-79
2022/12/13 08:06:07;;;;;;;6.50;6.00;;;-2.50;99.90;;;;;;5097054;28;21378;-76
2022/12/13 08:08:34;;;;;;;6.30;5.80;;;-2.60;99.90;;;;;;5092000;28;20586;-78
2022/12/13 08:11:04;;;;;;;6.10;5.70;;;-2.50;99.90;;;;;;5080020;28;20225;-77
2022/12/13 08:13:31;;;;;;;5.85;5.43;;;-2.50;99.90;;;;;;5078322;28;20221;-77
2022/12/13 08:16:00;;;;;;;5.78;5.38;;;-2.50;99.90;;;;;;5087998;28;20223;-77
2022/12/13 08:18:27;;;;;;;6.00;5.60;;;-2.50;99.90;;;;;;5086182;28;20887;-77
2022/12/13 08:20:59;;;;;;;5.97;5.47;;;-2.50;99.90;;;;;;5082560;28;20313;-77
2022/12/13 08:23:26;;;;;;;5.78;5.35;;;-2.50;99.90;;;;;;5093424;28;20682;-77
2022/12/13 08:25:53;;;;;;;7.43;6.82;;;-2.50;99.90;;;;;;5085222;28;20220;-77
2022/12/13 08:28:22;;;;;;;5.72;5.32;;;-2.50;99.90;;;;;;5089946;28;20193;-77
2022/12/13 08:30:50;;;;;;;6.72;6.20;;;-2.50;99.90;;;;;;5077194;28;20221;-77
2022/12/13 08:33:18;;;;;;;6.65;6.13;;;-2.50;99.90;;;;;;5084253;28;20227;-79
2022/12/13 08:38:55;;;;;;;6.28;5.88;;;-2.40;99.90;;;;;;5089577;28;20209;-78
2022/12/13 08:41:47;;;;;;;6.72;6.15;;;-2.40;99.90;;;;;;5083703;28;20247;-78
2022/12/13 08:44:21;;;;;;;6.10;5.60;;;-2.40;99.90;;;;;;5085516;28;20259;-78
2022/12/13 08:46:48;;;;;;;7.35;6.75;;;-2.40;99.90;;;;;;5086830;28;20255;-78
2022/12/13 08:49:15;;;;;;;5.80;5.40;;;-2.30;99.90;;;;;;5091238;28;20197;-78
2022/12/13 08:51:43;;;;;;;5.97;5.50;;;-2.30;99.90;;;;;;5084038;28;20236;-76
2022/12/13 08:54:10;;;;;;;6.38;5.97;;;-2.20;99.90;;;;;;5092713;28;20217;-78
2022/12/13 08:56:37;;;;;;;6.05;5.63;;;-2.10;99.90;;;;;;5093530;27;20261;-78
2022/12/13 08:59:04;;;;;;;6.70;6.20;;;-2.00;99.90;;;;;;5107584;28;20193;-79
2022/12/13 09:01:33;;;;;;;6.00;5.53;;;-1.90;99.90;;;;;;5088253;28;20229;-78
2022/12/13 09:04:00;;;;;;;7.18;6.57;;;-1.90;99.90;;;;;;5093420;28;20196;-79
2022/12/13 09:06:27;;;;;;;7.00;6.50;;;-1.90;99.90;;;;;;5085542;28;20630;-78
2022/12/13 09:08:54;;;;;;;6.40;5.80;;;-1.90;99.90;;;;;;5087240;28;20203;-79
2022/12/13 09:11:21;;;;;;;6.05;5.65;;;-1.90;99.90;;;;;;5086760;28;20216;-77
2022/12/13 09:13:50;;;;;;;6.25;5.75;;;-2.00;99.90;;;;;;5114114;22;20224;-74
2022/12/13 09:16:21;;;;;;;6.65;6.10;;;-2.00;99.90;;;;;;5073373;28;20229;-76
2022/12/13 09:18:50;;;;;;;7.50;6.22;;;-2.00;99.90;;;;;;5087041;28;20474;-74
2022/12/13 09:21:19;;;;;;;5.70;5.20;;;-1.90;99.90;;;;;;5084936;28;20315;-73
2022/12/13 09:23:47;;;;;;;6.60;6.03;;;-1.90;99.90;;;;;;5095038;28;20205;-73
2022/12/13 09:26:16;;;;;;;6.57;6.18;;;-1.80;99.90;;;;;;5085623;28;20217;-73
2022/12/13 09:28:43;;;;;;;6.25;5.65;;;-1.80;99.90;;;;;;5089838;28;20198;-72
2022/12/13 09:31:13;;;;;;;5.85;5.38;;;-1.80;99.90;;;;;;5089781;28;20229;-73
2022/12/13 09:33:40;;;;;;;6.47;5.97;;;-1.80;99.90;;;;;;5095685;28;20209;-74
2022/12/13 09:36:12;;;;;;;6.15;5.72;;;-1.90;99.90;;;;;;5081806;28;20706;-73
2022/12/13 09:38:40;;;;;;;6.10;5.63;;;-1.90;99.90;;;;;;5091617;28;20427;-74
2022/12/13 09:41:18;;;;;;;5.88;5.47;;;-1.80;99.90;;;;;;5074404;28;20229;-73
2022/12/13 09:43:47;;;;;;;6.15;5.75;;;-1.80;99.90;;;;;;5090516;28;20700;-74
2022/12/13 09:46:23;;;;;;;6.35;5.95;;;-1.80;99.90;;;;;;5089155;28;20230;-73
2022/12/13 09:48:53;;;;;;;4.93;4.63;;;-1.60;99.90;;;;;;5095287;28;20197;-73
2022/12/13 09:51:24;;;;;;;6.13;5.72;;;-1.60;99.90;;;;;;5091173;28;20244;-73
2022/12/13 09:53:53;;;;;;;6.57;6.00;;;-1.60;99.90;;;;;;5083185;28;20224;-73
2022/12/13 09:56:23;;;;;;;5.82;5.43;;;-1.60;99.90;;;;;;5089471;28;20221;-73
2022/12/13 09:58:51;;;;;;;5.68;5.18;;;-1.60;99.90;;;;;;5074820;28;20229;-73
2022/12/13 10:01:20;;;;;;;6.60;6.10;;;-1.60;99.90;;;;;;5091827;28;20224;-73
2022/12/13 10:03:50;;;;;;;6.50;6.03;;;-1.60;99.90;;;;;;5090680;28;20196;-73
2022/12/13 10:06:20;;;;;;;6.68;5.40;;;-1.60;99.90;;;;;;5091962;28;20312;-74
2022/12/13 10:08:51;;;;;;;5.75;5.25;;;-1.50;99.90;;;;;;5090330;28;20698;-73
2022/12/13 10:11:20;;;;;;;5.97;5.50;;;-1.50;99.90;;;;;;5091386;28;20216;-73
2022/12/13 10:13:55;;;;;;;6.85;6.30;;;-1.40;99.90;;;;;;5091018;28;20214;-73
2022/12/13 10:16:28;;;;;;;5.70;5.28;;;-1.50;99.90;;;;;;5090968;28;20216;-73
2022/12/13 10:18:56;;;;;;;5.78;5.38;;;-1.50;99.90;;;;;;5067408;28;20194;-74
2022/12/13 10:21:27;;;;;;;6.18;5.78;;;-1.50;99.90;;;;;;5089218;28;20252;-74
2022/12/13 10:24:13;;;;;;;6.07;5.68;;;-1.50;99.90;;;;;;5086390;28;20188;-73
2022/12/13 10:26:41;;;;;;;6.50;5.60;;;-1.40;99.90;;;;;;5087236;28;20225;-73
2022/12/13 10:29:09;;;;;;;5.95;5.55;;;-1.40;99.90;;;;;;5075660;28;20209;-73
2022/12/13 10:31:42;;;;;;;6.90;6.30;;;-1.40;99.90;;;;;;5092953;28;20221;-74
2022/12/13 10:34:23;;;;;;;6.28;5.78;;;-1.30;99.90;;;;;;5093279;28;20254;-73
2022/12/13 10:36:51;;;;;;;6.07;5.57;;;-1.20;99.90;;;;;;5095294;28;20228;-73
2022/12/13 10:39:38;;;;;;;6.13;5.65;;;-1.20;99.90;;;;;;5096319;28;20284;-73
2022/12/13 10:42:12;;;;;;;6.22;5.72;;;-1.10;99.90;;;;;;5087471;28;20229;-74
2022/12/13 10:44:39;;;;;;;6.00;5.55;;;-1.10;99.90;;;;;;5092118;28;20182;-73
2022/12/13 10:47:16;;;;;;;5.95;5.45;;;-1.10;99.90;;;;;;5089660;28;20589;-72
2022/12/13 10:49:54;;;;;;;5.60;5.20;;;-1.20;99.90;;;;;;5091147;28;20232;-73
2022/12/13 10:52:26;;;;;;;6.07;5.68;;;-1.20;99.90;;;;;;5081843;28;20330;-73
2022/12/13 10:54:56;;;;;;;5.97;5.47;;;-1.30;99.90;;;;;;5084348;28;20213;-73
2022/12/13 10:57:24;;;;;;;5.97;5.07;;;-1.30;99.90;;;;;;5086246;28;20845;-73
2022/12/13 10:59:53;;;;;;;6.03;5.63;;;-1.40;99.90;;;;;;5094518;28;20594;-73
2022/12/13 11:02:33;;;;;;;5.85;5.45;;;-1.40;99.90;;;;;;5098853;28;20592;-75
2022/12/13 11:05:21;;;;;;;5.40;5.05;;;-1.40;99.90;;;;;;5086489;28;20181;-74
2022/12/13 11:07:49;;;;;;;5.40;5.00;;;-1.40;99.90;;;;;;5088274;28;20236;-73
2022/12/13 11:10:23;;;;;;;5.70;5.30;;;-1.30;99.90;;;;;;5084163;28;22202;-73
2022/12/13 11:12:52;;;;;;;5.25;4.95;;;-1.20;99.90;;;;;;5088752;28;20215;-73
2022/12/13 11:15:24;;;;;;;5.22;4.82;;;-1.10;99.90;;;;;;5092835;28;20221;-73
2022/12/13 11:17:56;;;;;;;5.45;5.05;;;-1.10;99.90;;;;;;5090228;28;20869;-72
2022/12/13 11:20:27;;;;;;;5.28;4.97;;;-1.00;99.90;;;;;;5082629;28;21140;-73
2022/12/13 11:23:03;;;;;;;5.75;5.30;;;-1.00;99.90;;;;;;5090610;28;20658;-73
2022/12/13 11:25:37;;;;;;;6.00;5.50;;;-1.10;99.90;;;;;;5083360;28;20909;-73
2022/12/13 11:28:28;;;;;;;5.00;4.70;;;-1.10;99.90;;;;;;5087626;28;20212;-73
2022/12/13 11:31:07;;;;;;;5.47;5.07;;;-1.10;99.90;;;;;;5088692;28;20639;-73
2022/12/13 11:33:47;;;;;;;5.82;5.43;;;-1.10;99.90;;;;;;5087163;28;20220;-73
2022/12/13 11:36:26;;;;;;;6.03;5.55;;;-1.00;99.90;;;;;;5075009;28;20214;-73
2022/12/13 11:39:03;;;;;;;5.65;5.25;;;-1.00;99.90;;;;;;5091439;28;20234;-73
2022/12/13 11:41:36;;;;;;;6.43;5.93;;;-1.00;99.90;;;;;;5085050;28;20224;-73
2022/12/13 11:44:12;;;;;;;5.75;5.35;;;-1.00;99.90;;;;;;5091107;28;20246;-73
2022/12/13 11:46:42;;;;;;;10.20;7.97;;;-0.90;99.90;;;;;;5093752;28;20594;-73
2022/12/13 11:49:16;;;;;;;6.15;5.65;;;-0.80;99.90;;;;;;5094053;28;20238;-73
2022/12/13 11:51:48;;;;;;;6.80;5.85;;;-0.70;99.90;;;;;;5088518;28;20216;-73
2022/12/13 11:54:24;;;;;;;6.32;5.65;;;-0.80;99.90;;;;;;5093481;28;20449;-73
2022/12/13 11:56:59;;;;;;;6.22;5.78;;;-0.80;99.90;;;;;;5090872;28;20219;-74
2022/12/13 11:59:34;;;;;;;5.93;5.43;;;-0.80;99.90;;;;;;5092840;28;20657;-73
2022/12/13 12:02:07;;;;;;;5.65;5.15;;;-1.00;99.90;;;;;;5088904;28;20227;-72
2022/12/13 12:04:40;;;;;;;5.47;5.05;;;-1.00;99.90;;;;;;5074673;28;20566;-72
2022/12/13 12:07:13;;;;;;;6.00;5.50;;;-1.00;99.90;;;;;;5089355;28;20642;-73
2022/12/13 12:09:48;;;;;;;5.85;5.35;;;-1.00;99.90;;;;;;5091178;28;20421;-73
2022/12/13 12:12:24;;;;;;;4.90;4.60;;;-1.00;99.90;;;;;;5077920;28;20569;-72
2022/12/13 12:14:58;;;;;;;5.30;4.90;;;-1.00;99.90;;;;;;5089673;28;20205;-72
2022/12/13 12:17:26;;;;;;;5.95;5.43;;;-0.90;99.90;;;;;;5087433;28;20225;-72
2022/12/13 12:19:56;;;;;;;5.88;5.47;;;-0.90;99.90;;;;;;5087852;28;20238;-73
2022/12/13 12:22:33;;;;;;;6.18;5.68;;;-0.90;99.90;;;;;;5102980;22;20601;-77
2022/12/13 12:25:18;;;;;;;6.15;5.55;;;-0.90;99.90;;;;;;5090624;28;20221;-77
2022/12/13 12:27:54;;;;;;;5.72;5.10;;;-0.90;99.90;;;;;;5095651;28;20232;-77
2022/12/13 12:30:23;;;;;;;8.00;6.45;;;-0.90;99.90;;;;;;5089798;28;20208;-77
2022/12/13 12:32:54;;;;;;;6.15;5.30;;;-0.80;99.90;;;;;;5082947;28;20231;-77
2022/12/13 12:35:51;;;;;;;6.80;6.20;;;-0.70;99.90;;;;;;5088740;28;20635;-77
2022/12/13 12:38:52;;;;;;;6.20;5.70;;;-0.70;99.90;;;;;;5087340;28;20201;-76
2022/12/13 12:41:29;;;;;;;7.40;6.72;;;-0.60;99.90;;;;;;5088363;28;20224;-77
2022/12/13 12:44:05;;;;;;;6.65;6.15;;;-0.70;99.90;;;;;;5089741;28;20209;-77
2022/12/13 12:46:47;;;;;;;6.45;5.90;;;-0.70;99.90;;;;;;5086569;28;21994;-78
2022/12/13 12:49:42;;;;;;;5.65;5.07;;;-0.70;99.90;;;;;;5093327;28;20197;-77
2022/12/13 12:52:20;;;;;;;5.10;4.70;;;-0.70;99.90;;;;;;5071514;28;20237;-77
2022/12/13 12:55:01;;;;;;;5.70;5.20;;;-0.70;99.90;;;;;;5093245;28;20733;-77
2022/12/13 12:57:38;;;;;;;5.93;5.53;;;-0.80;99.90;;;;;;5095608;28;20213;-76
2022/12/13 13:00:13;;;;;;;5.88;5.40;;;-0.80;99.90;;;;;;5103242;28;20204;-76
2022/12/13 13:02:45;;;;;;;6.30;5.70;;;-0.80;99.90;;;;;;5093985;28;20308;-76
2022/12/13 13:05:20;;;;;;;5.88;5.38;;;-0.80;99.90;;;;;;5101789;28;20209;-77
2022/12/13 13:07:54;;;;;;;6.45;5.93;;;-0.70;99.90;;;;;;5100688;28;20232;-76
2022/12/13 13:10:22;;;;;;;6.43;5.90;;;-0.70;99.90;;;;;;5096677;28;20197;-77
2022/12/13 13:12:50;;;;;;;6.03;5.63;;;-0.70;99.90;;;;;;5093704;28;20200;-78
2022/12/13 13:15:57;;;;;;;5.68;5.28;;;-0.80;99.90;;;;;;5093272;28;20220;-79